Time;durP1;ratioP1;P1;durP2;ratioP2;P2;SDS_P1;SDS_P2;PMS_P1;PMS_P2;Temp;Humidity;BMP_temperature;BMP_pressure;BME280_temperature;BME280_humidity;BME280_pressure;Samples;Min_cycle;Max_cycle;Signal;HPM_P1;HPM_P2
2022/08/05 00:02:22;;;;;;;5.75;2.55;;;19.20;99.90;;;;;;5070155;28;20049;-69
2022/08/05 00:04:48;;;;;;;4.13;2.80;;;19.10;99.90;;;;;;5071482;28;20079;-70
2022/08/05 00:07:14;;;;;;;5.03;2.80;;;19.20;99.90;;;;;;5071403;28;20069;-70
2022/08/05 00:09:39;;;;;;;6.35;2.60;;;19.10;99.90;;;;;;5070764;28;20081;-70
2022/08/05 00:12:05;;;;;;;8.57;3.08;;;19.00;99.90;;;;;;5070201;28;20044;-70
2022/08/05 00:14:31;;;;;;;5.80;2.65;;;18.90;99.90;;;;;;5071352;28;20082;-70
2022/08/05 00:16:57;;;;;;;4.40;3.00;;;19.00;99.90;;;;;;5070360;28;20041;-70
2022/08/05 00:19:23;;;;;;;7.65;2.90;;;18.90;99.90;;;;;;5070685;28;20044;-70
2022/08/05 00:21:48;;;;;;;8.63;3.47;;;18.80;99.90;;;;;;5071296;28;20052;-70
2022/08/05 00:24:14;;;;;;;8.55;3.90;;;18.80;99.90;;;;;;5071306;28;20033;-70
2022/08/05 00:26:40;;;;;;;5.35;2.95;;;18.90;99.90;;;;;;5071439;28;20115;-70
2022/08/05 00:29:05;;;;;;;5.05;3.28;;;18.70;99.90;;;;;;5071211;28;20167;-68
2022/08/05 00:31:31;;;;;;;5.13;3.13;;;18.80;99.90;;;;;;5071050;28;20395;-69
2022/08/05 00:33:56;;;;;;;5.95;3.00;;;18.80;99.90;;;;;;5071217;28;20387;-68
2022/08/05 00:36:23;;;;;;;4.82;2.97;;;18.70;99.90;;;;;;5071095;28;20040;-69
2022/08/05 00:38:49;;;;;;;7.30;3.20;;;18.70;99.90;;;;;;5071242;28;20047;-68
2022/08/05 00:41:26;;;;;;;6.65;3.00;;;18.70;99.90;;;;;;5070796;28;20513;-69
2022/08/05 00:43:52;;;;;;;7.38;3.03;;;18.80;99.90;;;;;;5071274;28;20037;-68
2022/08/05 00:46:18;;;;;;;4.93;2.83;;;18.80;99.90;;;;;;5074015;28;20123;-68
2022/08/05 00:48:44;;;;;;;7.30;3.05;;;18.70;99.90;;;;;;5074606;28;20044;-69
2022/08/05 00:51:09;;;;;;;6.22;2.70;;;18.90;99.90;;;;;;5074375;28;20043;-69
2022/08/05 00:53:35;;;;;;;4.35;2.38;;;18.80;99.90;;;;;;5074572;28;20075;-69
2022/08/05 00:56:00;;;;;;;5.32;2.60;;;18.80;99.90;;;;;;5074716;28;20044;-68
2022/08/05 00:58:26;;;;;;;5.28;2.65;;;18.80;99.90;;;;;;5074634;28;20490;-69
2022/08/05 01:00:52;;;;;;;7.95;2.95;;;19.00;99.90;;;;;;5074156;28;20033;-68
2022/08/05 01:03:17;;;;;;;7.82;2.85;;;18.90;99.90;;;;;;5074418;28;20033;-68
2022/08/05 01:05:43;;;;;;;5.53;3.30;;;19.10;99.90;;;;;;5074681;28;20135;-68
2022/08/05 01:08:08;;;;;;;10.48;3.00;;;19.20;99.90;;;;;;5074346;28;20177;-69
2022/08/05 01:10:55;;;;;;;8.57;2.33;;;18.90;99.90;;;;;;5072941;28;20036;-69
2022/08/05 01:13:34;;;;;;;6.07;2.75;;;19.00;99.90;;;;;;5074355;28;20076;-69
2022/08/05 01:16:03;;;;;;;7.45;3.17;;;19.10;99.90;;;;;;5074343;28;20044;-69
2022/08/05 01:18:33;;;;;;;5.22;2.30;;;19.10;99.90;;;;;;5074270;28;20140;-69
2022/08/05 01:21:31;;;;;;;5.82;2.90;;;19.00;99.90;;;;;;5074005;28;20051;-69
2022/08/05 01:24:34;;;;;;;4.68;2.92;;;19.10;99.90;;;;;;5049641;28;20124;-69
2022/08/05 01:27:12;;;;;;;4.70;2.40;;;19.00;99.90;;;;;;5074244;28;20047;-69
2022/08/05 01:29:43;;;;;;;6.35;2.70;;;18.90;99.90;;;;;;5073830;28;20119;-69
2022/08/05 01:32:14;;;;;;;5.57;3.47;;;18.90;99.90;;;;;;5073958;28;20048;-68
2022/08/05 01:34:46;;;;;;;6.60;2.58;;;19.00;99.90;;;;;;5073850;28;20517;-69
2022/08/05 01:37:20;;;;;;;5.45;2.85;;;18.90;99.90;;;;;;5074194;28;20050;-69
2022/08/05 01:39:47;;;;;;;6.35;2.53;;;19.00;99.90;;;;;;5073586;28;20162;-69
2022/08/05 01:42:16;;;;;;;4.65;2.45;;;19.10;99.90;;;;;;5072869;28;20114;-69
2022/08/05 01:44:43;;;;;;;7.43;3.17;;;19.10;99.90;;;;;;5073790;28;20086;-68
2022/08/05 01:47:10;;;;;;;7.03;3.45;;;19.10;99.90;;;;;;5073586;28;20048;-69
2022/08/05 01:49:38;;;;;;;4.00;2.83;;;18.90;99.90;;;;;;5073552;28;20036;-69
2022/08/05 01:52:05;;;;;;;7.20;2.90;;;18.90;99.90;;;;;;5073809;28;20044;-69
2022/08/05 01:54:42;;;;;;;4.63;2.53;;;19.00;99.90;;;;;;5073698;28;20045;-69
2022/08/05 01:57:10;;;;;;;10.65;2.78;;;19.00;99.90;;;;;;5072965;28;20040;-69
2022/08/05 01:59:39;;;;;;;9.25;3.53;;;18.80;99.90;;;;;;5072821;28;20070;-69
2022/08/05 02:02:06;;;;;;;6.10;2.60;;;18.90;99.90;;;;;;5073598;28;20137;-69
2022/08/05 02:04:35;;;;;;;8.00;2.50;;;18.80;99.90;;;;;;5073522;28;20036;-69
2022/08/05 02:07:01;;;;;;;4.95;2.65;;;18.80;99.90;;;;;;5073516;28;20040;-69
2022/08/05 02:09:27;;;;;;;5.20;3.03;;;18.80;99.90;;;;;;5073007;28;20048;-69
2022/08/05 02:12:52;;;;;;;9.50;3.47;;;18.80;99.90;;;;;;5073223;28;20043;-68
2022/08/05 02:15:48;;;;;;;5.32;2.60;;;18.90;99.90;;;;;;5011259;28;20197;-69
2022/08/05 02:18:29;;;;;;;5.07;2.90;;;18.70;99.90;;;;;;5072988;28;20043;-69
2022/08/05 02:21:17;;;;;;;6.10;2.30;;;18.80;99.90;;;;;;5072938;28;20045;-69
2022/08/05 02:23:46;;;;;;;5.90;2.90;;;18.70;99.90;;;;;;5073074;28;20036;-69
2022/08/05 02:26:17;;;;;;;6.55;3.30;;;18.80;99.90;;;;;;5073001;28;20036;-69
2022/08/05 02:28:45;;;;;;;5.43;3.00;;;18.80;99.90;;;;;;5072779;28;20044;-69
2022/08/05 02:31:22;;;;;;;4.35;2.63;;;18.50;99.90;;;;;;5054697;28;20040;-69
2022/08/05 02:33:55;;;;;;;7.40;2.63;;;18.80;99.90;;;;;;5072798;28;20409;-69
2022/08/05 02:36:24;;;;;;;12.90;3.20;;;18.50;99.90;;;;;;5072886;28;20052;-69
2022/08/05 02:38:51;;;;;;;7.93;2.58;;;18.70;99.90;;;;;;5072600;28;20032;-69
2022/08/05 02:41:18;;;;;;;6.03;2.83;;;18.60;99.90;;;;;;5071065;28;20048;-69
2022/08/05 02:43:46;;;;;;;3.65;2.80;;;18.60;99.90;;;;;;5071541;28;20112;-68
2022/08/05 02:46:16;;;;;;;6.10;2.97;;;18.60;99.90;;;;;;5072641;28;20047;-69
2022/08/05 02:48:45;;;;;;;5.70;2.72;;;18.60;99.90;;;;;;5072366;28;20596;-69
2022/08/05 02:51:12;;;;;;;6.13;3.15;;;18.60;99.90;;;;;;5072119;28;20494;-69
2022/08/05 02:53:39;;;;;;;6.65;3.30;;;18.70;99.90;;;;;;5072305;28;20094;-69
2022/08/05 02:56:07;;;;;;;4.60;2.50;;;18.70;99.90;;;;;;5072613;28;20120;-69
2022/08/05 02:58:34;;;;;;;8.40;3.13;;;18.80;99.90;;;;;;5072321;28;20028;-68
2022/08/05 03:01:02;;;;;;;5.32;2.70;;;18.70;99.90;;;;;;5072027;28;20049;-68
2022/08/05 03:03:29;;;;;;;3.88;2.42;;;18.70;99.90;;;;;;5072324;28;20448;-69
2022/08/05 03:05:56;;;;;;;6.10;2.40;;;18.70;99.90;;;;;;5072282;28;20474;-69
2022/08/05 03:08:22;;;;;;;9.52;3.53;;;18.80;99.90;;;;;;5071226;28;20544;-69
2022/08/05 03:10:48;;;;;;;5.53;2.50;;;18.60;99.90;;;;;;5071944;28;20040;-69
2022/08/05 03:13:15;;;;;;;8.93;3.00;;;18.70;99.90;;;;;;5072201;28;20490;-69
2022/08/05 03:15:45;;;;;;;5.55;2.80;;;18.70;99.90;;;;;;5072108;28;20033;-69
2022/08/05 03:18:11;;;;;;;4.93;2.70;;;18.70;99.90;;;;;;5070855;28;20089;-69
2022/08/05 03:20:37;;;;;;;8.43;2.80;;;18.70;99.90;;;;;;5071564;28;20036;-69
2022/08/05 03:23:09;;;;;;;7.97;2.47;;;18.70;99.90;;;;;;5071870;28;20390;-69
2022/08/05 03:25:36;;;;;;;5.47;2.75;;;18.70;99.90;;;;;;5071928;28;20564;-69
2022/08/05 03:28:03;;;;;;;5.00;2.70;;;18.70;99.90;;;;;;5072031;28;20410;-69
2022/08/05 03:30:31;;;;;;;7.18;3.38;;;18.80;99.90;;;;;;5071596;28;20048;-69
2022/08/05 03:32:58;;;;;;;5.45;2.95;;;18.70;99.90;;;;;;5071847;28;20379;-69
2022/08/05 03:35:24;;;;;;;7.70;3.13;;;18.80;99.90;;;;;;5071876;28;20047;-69
2022/08/05 03:37:50;;;;;;;6.30;2.97;;;18.50;99.90;;;;;;5072082;28;20035;-69
2022/08/05 03:40:15;;;;;;;6.57;3.13;;;18.60;99.90;;;;;;5071398;28;20044;-69
2022/08/05 03:42:41;;;;;;;6.45;3.33;;;18.60;99.90;;;;;;5071797;28;20112;-70
2022/08/05 03:45:08;;;;;;;6.50;3.38;;;18.50;99.90;;;;;;5071708;28;20494;-69
2022/08/05 03:47:33;;;;;;;5.90;2.83;;;18.50;99.90;;;;;;5071674;28;20044;-69
2022/08/05 03:49:59;;;;;;;6.25;3.95;;;18.60;99.90;;;;;;5071164;28;20046;-69
2022/08/05 03:52:28;;;;;;;4.95;3.88;;;18.70;99.90;;;;;;5071793;28;20049;-69
2022/08/05 03:55:01;;;;;;;6.47;3.30;;;18.60;99.90;;;;;;5071741;28;20068;-70
2022/08/05 03:57:32;;;;;;;5.13;3.47;;;18.40;99.90;;;;;;5071680;28;20041;-69
2022/08/05 04:00:04;;;;;;;5.85;3.15;;;18.60;99.90;;;;;;5071086;28;20102;-69
2022/08/05 04:02:31;;;;;;;5.60;3.27;;;18.50;99.90;;;;;;5071658;28;20048;-69
2022/08/05 04:04:58;;;;;;;3.55;2.83;;;18.60;99.90;;;;;;5070477;28;20054;-70
2022/08/05 04:07:25;;;;;;;5.18;2.80;;;18.60;99.90;;;;;;5071671;28;20037;-69
2022/08/05 04:09:52;;;;;;;5.45;3.28;;;18.40;99.90;;;;;;5071190;28;20045;-69
2022/08/05 04:12:18;;;;;;;7.60;3.40;;;18.60;99.90;;;;;;5071371;28;20040;-69
2022/08/05 04:14:44;;;;;;;5.40;2.95;;;18.50;99.90;;;;;;5071263;28;20135;-69
2022/08/05 04:17:10;;;;;;;8.75;3.45;;;18.60;99.90;;;;;;5071296;28;20037;-69
2022/08/05 04:19:44;;;;;;;7.65;3.30;;;18.70;99.90;;;;;;5070049;28;20056;-69
2022/08/05 04:22:11;;;;;;;6.10;3.42;;;18.60;99.90;;;;;;5074323;28;20044;-69
2022/08/05 04:24:38;;;;;;;9.20;3.00;;;18.60;99.90;;;;;;5075238;28;20040;-69
2022/08/05 04:27:03;;;;;;;6.32;2.70;;;18.60;99.90;;;;;;5075254;28;20055;-69
2022/08/05 04:29:29;;;;;;;5.65;2.90;;;18.60;99.90;;;;;;5073419;28;20418;-69
2022/08/05 04:31:54;;;;;;;8.75;2.83;;;18.50;99.90;;;;;;5075291;28;20131;-70
2022/08/05 04:34:20;;;;;;;4.57;2.90;;;18.50;99.90;;;;;;5075236;28;20123;-70
2022/08/05 04:36:45;;;;;;;5.70;2.80;;;18.70;99.90;;;;;;5075097;28;20730;-69
2022/08/05 04:39:11;;;;;;;7.25;3.65;;;18.50;99.90;;;;;;5074731;28;20383;-70
2022/08/05 04:41:37;;;;;;;5.22;2.90;;;18.70;99.90;;;;;;5074951;28;20036;-70
2022/08/05 04:44:02;;;;;;;7.72;2.65;;;18.70;99.90;;;;;;5074712;28;20119;-70
2022/08/05 04:46:28;;;;;;;4.80;3.10;;;18.70;99.90;;;;;;5075068;28;20040;-69
2022/08/05 04:48:53;;;;;;;5.95;3.22;;;18.60;99.90;;;;;;5073358;28;20094;-70
2022/08/05 04:51:19;;;;;;;5.70;3.28;;;18.50;99.90;;;;;;5073419;28;20044;-70
2022/08/05 04:53:45;;;;;;;5.22;3.13;;;18.60;99.90;;;;;;5074708;28;20093;-70
2022/08/05 04:56:10;;;;;;;3.78;3.00;;;18.40;99.90;;;;;;5074691;28;20090;-70
2022/08/05 04:58:36;;;;;;;7.43;3.45;;;18.70;99.90;;;;;;5074206;28;20051;-69
2022/08/05 05:01:02;;;;;;;10.02;3.20;;;18.50;99.90;;;;;;5074508;28;20036;-70
2022/08/05 05:03:27;;;;;;;6.50;3.15;;;18.60;99.90;;;;;;5074440;28;20040;-69
2022/08/05 05:05:53;;;;;;;5.85;3.40;;;18.30;99.90;;;;;;5074632;28;20064;-69
2022/08/05 05:08:18;;;;;;;8.65;3.95;;;18.50;99.90;;;;;;5074510;28;20047;-69
2022/08/05 05:10:45;;;;;;;6.40;3.42;;;18.50;99.90;;;;;;5073001;28;20051;-69
2022/08/05 05:13:13;;;;;;;6.97;3.40;;;18.40;99.90;;;;;;5074224;28;20033;-70
2022/08/05 05:15:39;;;;;;;4.53;3.13;;;18.60;99.90;;;;;;5074326;28;20433;-70
2022/08/05 05:18:05;;;;;;;8.15;3.42;;;18.50;99.90;;;;;;5074443;28;20048;-69
2022/08/05 05:20:31;;;;;;;6.32;3.65;;;18.50;99.90;;;;;;5073984;28;20037;-70
2022/08/05 05:23:00;;;;;;;6.53;4.40;;;18.60;99.90;;;;;;5074119;28;20648;-69
2022/08/05 05:25:26;;;;;;;6.22;3.40;;;18.40;99.90;;;;;;5074199;28;20063;-69
2022/08/05 05:27:52;;;;;;;6.45;3.38;;;18.60;99.90;;;;;;5073931;28;20033;-69
2022/08/05 05:30:19;;;;;;;4.32;3.50;;;18.60;99.90;;;;;;5073971;28;20098;-70
2022/08/05 05:32:44;;;;;;;5.80;3.42;;;18.40;99.90;;;;;;5073157;28;20045;-69
2022/08/05 05:35:10;;;;;;;4.38;3.38;;;18.50;99.90;;;;;;5073812;28;20043;-70
2022/08/05 05:37:49;;;;;;;4.10;3.40;;;18.70;99.90;;;;;;5073971;28;20086;-69
2022/08/05 05:40:19;;;;;;;7.45;3.47;;;18.70;99.90;;;;;;5073361;28;20521;-70
2022/08/05 05:42:48;;;;;;;7.60;3.70;;;18.60;99.90;;;;;;5073984;28;20044;-70
2022/08/05 05:45:14;;;;;;;5.72;3.55;;;18.40;99.90;;;;;;5072743;28;20040;-69
2022/08/05 05:47:40;;;;;;;6.32;3.75;;;18.40;99.90;;;;;;5073811;28;20051;-69
2022/08/05 05:50:07;;;;;;;8.55;3.42;;;18.50;99.90;;;;;;5073275;28;20120;-70
2022/08/05 05:52:33;;;;;;;6.93;3.83;;;18.40;99.90;;;;;;5072636;28;20173;-69
2022/08/05 05:55:00;;;;;;;6.50;3.55;;;18.70;99.90;;;;;;5073511;28;20082;-70
2022/08/05 05:57:25;;;;;;;7.05;3.15;;;18.50;99.90;;;;;;5073582;28;20048;-70
2022/08/05 05:59:51;;;;;;;5.70;3.35;;;18.60;99.90;;;;;;5130726;22;20429;-71
2022/08/05 06:02:17;;;;;;;8.23;2.80;;;18.70;99.90;;;;;;5114132;28;20040;-72
2022/08/05 06:04:45;;;;;;;4.65;3.10;;;18.70;99.90;;;;;;5095763;28;20031;-72
2022/08/05 06:07:11;;;;;;;10.18;4.15;;;18.70;99.90;;;;;;5112719;28;20497;-72
2022/08/05 06:09:36;;;;;;;10.85;2.72;;;18.70;99.90;;;;;;5111657;28;20042;-72
2022/08/05 06:12:02;;;;;;;7.07;3.83;;;18.80;99.90;;;;;;5113915;28;20408;-72
2022/08/05 06:14:29;;;;;;;4.80;3.03;;;19.10;99.90;;;;;;5113805;28;20040;-73
2022/08/05 06:16:55;;;;;;;4.47;2.75;;;19.30;99.90;;;;;;5112692;28;20075;-70
2022/08/05 06:19:20;;;;;;;5.80;2.63;;;19.50;99.90;;;;;;5113368;28;20543;-71
2022/08/05 06:21:46;;;;;;;4.15;2.72;;;19.90;99.90;;;;;;5112366;28;20035;-72
2022/08/05 06:24:11;;;;;;;4.60;2.28;;;20.00;99.90;;;;;;5113447;28;20451;-72
2022/08/05 06:26:40;;;;;;;4.95;2.70;;;20.50;99.90;;;;;;5112269;28;20035;-72
2022/08/05 06:29:05;;;;;;;5.75;2.30;;;21.10;99.90;;;;;;5113458;28;20043;-72
2022/08/05 06:31:31;;;;;;;4.20;2.00;;;21.50;99.90;;;;;;5112026;28;20064;-72
2022/08/05 06:33:56;;;;;;;4.18;2.33;;;21.80;99.90;;;;;;5113558;28;20114;-72
2022/08/05 06:36:22;;;;;;;6.32;2.15;;;21.90;99.90;;;;;;5112254;28;20710;-72
2022/08/05 06:38:52;;;;;;;5.63;1.95;;;21.70;99.90;;;;;;5113203;28;20035;-72
2022/08/05 06:41:18;;;;;;;5.13;1.42;;;21.80;99.90;;;;;;5113399;28;20040;-72
2022/08/05 06:43:43;;;;;;;4.30;1.70;;;21.70;99.90;;;;;;5113296;28;20038;-72
2022/08/05 06:46:09;;;;;;;3.15;1.30;;;21.90;99.90;;;;;;5113211;28;20118;-72
2022/08/05 06:48:35;;;;;;;2.60;1.77;;;21.80;99.90;;;;;;5111914;28;20035;-72
2022/08/05 06:51:01;;;;;;;3.20;1.33;;;22.00;99.90;;;;;;5111521;28;20122;-72
2022/08/05 06:53:27;;;;;;;5.95;1.40;;;21.90;99.90;;;;;;5113007;28;20533;-72
2022/08/05 06:55:53;;;;;;;6.32;1.50;;;21.80;99.90;;;;;;5111756;28;20046;-72
2022/08/05 06:58:18;;;;;;;4.82;1.45;;;21.70;99.90;;;;;;5113057;28;20084;-72
2022/08/05 07:00:44;;;;;;;2.78;1.35;;;21.70;99.90;;;;;;5112423;28;20071;-72
2022/08/05 07:03:09;;;;;;;4.38;1.50;;;21.70;99.90;;;;;;5111913;28;20028;-72
2022/08/05 07:05:35;;;;;;;2.95;1.45;;;21.80;99.90;;;;;;5112947;28;20088;-72
2022/08/05 07:08:01;;;;;;;3.10;1.10;;;21.80;99.90;;;;;;5112728;28;20070;-72
2022/08/05 07:10:26;;;;;;;1.85;1.23;;;21.80;99.90;;;;;;5111053;28;20032;-72
2022/08/05 07:18:20;;;;;;;3.92;1.23;;;21.30;99.90;;;;;;5112608;27;20043;-72
2022/08/05 07:20:46;;;;;;;2.58;1.20;;;21.10;99.90;;;;;;5111934;28;20039;-72
2022/08/05 07:23:11;;;;;;;2.35;1.05;;;21.30;99.90;;;;;;5100785;28;20047;-72
2022/08/05 07:25:37;;;;;;;2.47;1.00;;;21.80;99.90;;;;;;5102740;28;20031;-72
2022/08/05 07:28:03;;;;;;;2.83;1.00;;;22.30;99.90;;;;;;5099740;28;20050;-72
2022/08/05 07:30:30;;;;;;;1.85;0.80;;;22.70;98.20;;;;;;5083783;28;20036;-72
2022/08/05 07:32:56;;;;;;;2.38;1.02;;;22.80;97.90;;;;;;5102304;28;20036;-72
2022/08/05 07:35:22;;;;;;;2.67;0.77;;;22.80;97.50;;;;;;5099410;28;20048;-73
2022/08/05 07:37:47;;;;;;;3.65;1.10;;;22.40;96.90;;;;;;5091227;28;20077;-73
2022/08/05 07:40:13;;;;;;;3.05;0.80;;;22.30;97.30;;;;;;5110541;28;20039;-71
2022/08/05 07:42:38;;;;;;;4.53;0.80;;;22.10;97.30;;;;;;5111343;28;20052;-70
2022/08/05 07:45:05;;;;;;;3.42;1.33;;;22.00;97.60;;;;;;5094063;28;20035;-71
2022/08/05 07:47:30;;;;;;;2.78;1.20;;;21.80;98.20;;;;;;5110890;28;20124;-70
2022/08/05 07:49:56;;;;;;;2.33;1.42;;;21.70;98.60;;;;;;5112094;28;20113;-70
2022/08/05 07:52:21;;;;;;;2.70;0.98;;;21.50;99.00;;;;;;5110946;28;20073;-70
2022/08/05 07:54:47;;;;;;;4.40;1.17;;;21.40;99.70;;;;;;5111587;28;20451;-70
2022/08/05 07:57:12;;;;;;;6.05;1.20;;;21.30;99.90;;;;;;5112285;28;20047;-70
2022/08/05 07:59:38;;;;;;;2.70;1.20;;;21.40;99.60;;;;;;5110480;28;20473;-71
2022/08/05 08:02:06;;;;;;;3.38;1.10;;;21.50;99.80;;;;;;5111082;28;20089;-71
2022/08/05 08:04:31;;;;;;;3.13;1.25;;;21.50;99.80;;;;;;5111152;28;20082;-71
2022/08/05 08:06:59;;;;;;;4.30;1.50;;;21.60;99.90;;;;;;5110609;28;20036;-71
2022/08/05 08:09:25;;;;;;;2.20;1.10;;;21.60;99.60;;;;;;5110346;28;20039;-71
2022/08/05 08:11:51;;;;;;;3.83;1.20;;;21.50;99.10;;;;;;5107659;28;20250;-71
2022/08/05 08:14:16;;;;;;;3.53;1.33;;;21.60;98.40;;;;;;5110838;28;20048;-71
2022/08/05 08:16:42;;;;;;;3.63;1.00;;;21.60;98.80;;;;;;5111873;28;20457;-71
2022/08/05 08:19:07;;;;;;;7.50;1.58;;;21.60;98.50;;;;;;5111785;28;20397;-71
2022/08/05 08:21:33;;;;;;;2.60;1.20;;;21.60;99.10;;;;;;5110466;28;20039;-71
2022/08/05 08:23:59;;;;;;;4.65;1.15;;;21.90;99.10;;;;;;5110642;28;20071;-71
2022/08/05 08:26:25;;;;;;;4.80;1.23;;;22.30;98.20;;;;;;5111998;28;20081;-71
2022/08/05 08:28:50;;;;;;;6.35;1.20;;;22.90;97.60;;;;;;5111801;28;20537;-71
2022/08/05 08:31:17;;;;;;;4.65;0.98;;;23.40;95.80;;;;;;5111386;28;20118;-71
2022/08/05 08:33:43;;;;;;;3.85;0.88;;;23.80;93.80;;;;;;5112086;28;20040;-71
2022/08/05 08:36:08;;;;;;;3.10;0.88;;;24.20;92.10;;;;;;5093921;28;20499;-71
2022/08/05 08:38:34;;;;;;;5.28;1.15;;;24.10;91.40;;;;;;5111755;28;20569;-71
2022/08/05 08:41:07;;;;;;;6.03;1.25;;;23.90;90.00;;;;;;5110121;28;20075;-71
2022/08/05 08:43:34;;;;;;;;;;;23.50;89.40;;;;;;5111003;28;20044;-71
2022/08/05 08:46:01;;;;;;;3.15;0.68;;;23.00;89.80;;;;;;5111732;28;19916;-71
2022/08/05 08:48:30;;;;;;;3.13;0.60;;;23.20;90.80;;;;;;5111676;28;20092;-70
2022/08/05 08:50:56;;;;;;;2.55;0.43;;;23.10;88.90;;;;;;5111332;28;20035;-71
2022/08/05 08:53:25;;;;;;;0.90;0.57;;;23.20;88.70;;;;;;5093341;28;20036;-71
2022/08/05 08:55:51;;;;;;;2.55;0.63;;;23.00;87.70;;;;;;5111748;28;20048;-71
2022/08/05 08:58:17;;;;;;;4.07;0.77;;;22.80;87.10;;;;;;5093173;28;20089;-71
2022/08/05 09:00:43;;;;;;;2.88;0.55;;;22.70;87.60;;;;;;5111108;28;20089;-70
2022/08/05 09:03:12;;;;;;;2.03;0.47;;;22.50;88.70;;;;;;5111766;28;20134;-71
2022/08/05 09:05:38;;;;;;;3.35;1.15;;;22.50;88.50;;;;;;5110371;28;20108;-70
2022/08/05 09:08:04;;;;;;;1.45;0.77;;;22.80;89.10;;;;;;5114078;28;20067;-70
2022/08/05 09:10:32;;;;;;;1.63;0.38;;;23.20;89.50;;;;;;5113760;28;20082;-70
2022/08/05 09:12:58;;;;;;;2.03;0.70;;;23.40;89.10;;;;;;5113690;28;20047;-70
2022/08/05 09:15:24;;;;;;;1.42;0.68;;;23.50;90.10;;;;;;5115189;28;20035;-72
2022/08/05 09:17:50;;;;;;;1.80;0.60;;;23.60;87.30;;;;;;5115205;28;20036;-71
2022/08/05 09:20:16;;;;;;;1.00;0.50;;;23.30;85.50;;;;;;5113348;28;20504;-70
2022/08/05 09:23:13;;;;;;;3.85;0.80;;;23.40;83.70;;;;;;5113621;28;20051;-71
2022/08/05 09:25:46;;;;;;;2.55;1.05;;;23.00;82.90;;;;;;5113547;28;20493;-70
2022/08/05 09:28:18;;;;;;;6.57;0.80;;;22.70;83.20;;;;;;5113832;28;20443;-71
2022/08/05 09:31:03;;;;;;;2.25;0.50;;;22.60;85.70;;;;;;5113108;28;20047;-70
2022/08/05 09:33:29;;;;;;;1.95;0.60;;;22.70;87.80;;;;;;5114826;27;20031;-71
2022/08/05 09:36:03;;;;;;;3.28;0.65;;;22.90;87.40;;;;;;5114575;28;20539;-71
2022/08/05 09:38:31;;;;;;;0.88;0.65;;;22.90;86.00;;;;;;5114480;28;20501;-71
2022/08/05 09:41:04;;;;;;;1.63;0.65;;;23.20;85.50;;;;;;5112930;28;20035;-71
2022/08/05 09:43:35;;;;;;;0.47;0.30;;;22.90;80.60;;;;;;5113514;28;20408;-71
2022/08/05 09:46:03;;;;;;;1.63;0.75;;;23.00;78.50;;;;;;5114305;28;20036;-71
2022/08/05 09:48:33;;;;;;;2.42;0.73;;;23.20;80.10;;;;;;5113061;28;20512;-71
2022/08/05 09:51:01;;;;;;;3.47;0.65;;;23.40;79.80;;;;;;5112721;28;20531;-70
2022/08/05 09:53:28;;;;;;;2.90;0.60;;;23.50;80.50;;;;;;5114446;28;20412;-70
2022/08/05 09:56:00;;;;;;;4.38;0.82;;;23.40;77.00;;;;;;5114348;28;20073;-71
2022/08/05 09:58:27;;;;;;;0.83;0.47;;;23.50;77.40;;;;;;5114271;28;20516;-71
2022/08/05 10:01:01;;;;;;;1.70;0.50;;;23.50;76.10;;;;;;5113555;27;20040;-71
2022/08/05 10:03:28;;;;;;;1.23;0.57;;;23.60;73.70;;;;;;5114273;28;20493;-71
2022/08/05 10:06:03;;;;;;;3.40;0.98;;;23.70;72.10;;;;;;5113010;28;20491;-72
2022/08/05 10:08:29;;;;;;;2.45;0.80;;;23.50;73.50;;;;;;5111016;28;20063;-73
2022/08/05 10:10:55;;;;;;;3.13;1.13;;;23.60;74.60;;;;;;5111673;28;20043;-72
2022/08/05 10:13:35;;;;;;;2.80;0.47;;;23.30;74.90;;;;;;5112022;28;20028;-71
2022/08/05 10:16:05;;;;;;;2.55;0.43;;;23.30;74.30;;;;;;5112957;28;20039;-71
2022/08/05 10:18:32;;;;;;;0.55;0.30;;;23.30;71.40;;;;;;5111926;28;20385;-72
2022/08/05 10:21:05;;;;;;;2.08;0.57;;;23.30;70.20;;;;;;5113290;28;20039;-71
2022/08/05 10:23:36;;;;;;;1.27;0.32;;;23.30;69.10;;;;;;5104890;28;20032;-71
2022/08/05 10:26:04;;;;;;;1.60;0.50;;;23.30;69.10;;;;;;5108116;28;20126;-71
2022/08/05 10:28:30;;;;;;;1.08;0.28;;;23.20;65.30;;;;;;5095323;28;20039;-71
2022/08/05 10:30:57;;;;;;;2.08;0.40;;;23.10;65.30;;;;;;5111994;28;20050;-71
2022/08/05 10:33:26;;;;;;;1.67;0.50;;;23.00;64.50;;;;;;5113578;28;20042;-71
2022/08/05 10:35:53;;;;;;;3.30;0.50;;;22.90;66.40;;;;;;5112007;28;20043;-72
2022/08/05 10:38:23;;;;;;;1.13;0.30;;;22.80;66.20;;;;;;5112835;28;20036;-72
2022/08/05 10:40:48;;;;;;;0.85;0.38;;;22.80;66.30;;;;;;5113151;28;20039;-72
2022/08/05 10:43:44;;;;;;;1.55;0.40;;;22.80;67.30;;;;;;5113358;28;20097;-72
2022/08/05 10:46:13;;;;;;;2.58;0.73;;;22.80;66.40;;;;;;5095026;28;20036;-72
2022/08/05 10:48:40;;;;;;;0.77;0.32;;;22.70;66.80;;;;;;5113276;28;20084;-72
2022/08/05 10:51:24;;;;;;;2.42;0.40;;;22.70;66.90;;;;;;5112974;28;20032;-72
2022/08/05 10:53:50;;;;;;;1.88;0.20;;;22.70;65.30;;;;;;5112134;28;20379;-73
2022/08/05 10:56:21;;;;;;;1.05;0.50;;;22.60;58.00;;;;;;5113181;28;20031;-73
2022/08/05 10:58:53;;;;;;;1.48;0.10;;;22.50;54.10;;;;;;5113066;28;20063;-72
2022/08/05 11:01:43;;;;;;;0.30;0.10;;;22.50;55.20;;;;;;5111161;28;20047;-73
2022/08/05 11:04:21;;;;;;;2.35;0.20;;;22.40;54.00;;;;;;5113066;28;20036;-72
2022/08/05 11:07:05;;;;;;;1.27;0.17;;;22.40;55.60;;;;;;5109144;28;20062;-72
2022/08/05 11:09:55;;;;;;;0.88;0.38;;;22.40;55.60;;;;;;5110200;28;20090;-73
2022/08/05 11:12:37;;;;;;;1.08;0.32;;;22.40;57.00;;;;;;5103795;28;20122;-70
2022/08/05 11:15:06;;;;;;;1.13;0.22;;;22.60;56.40;;;;;;5103127;28;20078;-70
2022/08/05 11:17:36;;;;;;;2.85;0.30;;;22.60;56.70;;;;;;5101859;28;20039;-70
2022/08/05 11:20:06;;;;;;;1.02;0.32;;;22.50;55.20;;;;;;5097077;28;20036;-69
2022/08/05 11:22:47;;;;;;;0.25;0.20;;;22.50;54.90;;;;;;5102521;28;20039;-70
2022/08/05 11:25:36;;;;;;;1.25;0.20;;;22.60;55.30;;;;;;5120988;27;20038;-69
2022/08/05 11:28:10;;;;;;;0.63;0.10;;;22.50;53.40;;;;;;5112645;28;20044;-70
2022/08/05 11:30:57;;;;;;;1.95;0.17;;;22.60;54.40;;;;;;5109750;28;20048;-70
2022/08/05 11:33:30;;;;;;;1.40;0.40;;;22.60;55.90;;;;;;5111228;28;20035;-69
2022/08/05 11:35:55;;;;;;;;;;;22.40;54.30;;;;;;5111600;28;20047;-69
2022/08/05 11:38:40;;;;;;;3.00;0.40;;;22.30;55.70;;;;;;5111083;28;20350;-69
2022/08/05 11:41:13;;;;;;;5.63;0.30;;;22.50;54.90;;;;;;5109875;28;20489;-69
2022/08/05 11:43:59;;;;;;;1.33;0.45;;;22.50;56.30;;;;;;5103260;28;20035;-69
2022/08/05 11:46:31;;;;;;;2.35;0.20;;;22.50;55.50;;;;;;5092078;28;20089;-69
2022/08/05 11:48:58;;;;;;;0.50;0.20;;;22.30;56.00;;;;;;5091855;28;20036;-68
2022/08/05 11:51:26;;;;;;;2.40;0.30;;;22.30;55.30;;;;;;5091521;28;20505;-69
2022/08/05 11:53:52;;;;;;;3.65;0.40;;;22.40;56.80;;;;;;5092030;28;20115;-68
2022/08/05 11:56:18;;;;;;;3.28;0.43;;;22.40;57.80;;;;;;5092018;28;20423;-69
2022/08/05 11:58:46;;;;;;;0.95;0.40;;;22.30;58.80;;;;;;5091664;28;20085;-70
2022/08/05 12:01:17;;;;;;;1.58;0.40;;;22.10;59.70;;;;;;5097696;22;20082;-68
2022/08/05 12:03:44;;;;;;;2.58;0.40;;;22.00;62.50;;;;;;5111928;28;20564;-71
2022/08/05 12:06:11;;;;;;;4.28;0.50;;;21.70;63.10;;;;;;5112064;28;20036;-71
2022/08/05 12:08:46;;;;;;;0.85;0.30;;;21.40;62.70;;;;;;5093526;28;20051;-71
2022/08/05 12:11:21;;;;;;;2.85;0.47;;;21.30;63.10;;;;;;5111735;28;20059;-72
2022/08/05 12:13:56;;;;;;;1.55;0.50;;;21.20;64.70;;;;;;5112053;28;20092;-72
2022/08/05 12:16:24;;;;;;;8.18;0.60;;;21.20;65.80;;;;;;5111937;28;20036;-71
2022/08/05 12:18:51;;;;;;;2.00;0.75;;;21.20;65.60;;;;;;5112113;28;20061;-71
2022/08/05 12:21:26;;;;;;;1.25;0.30;;;21.20;64.90;;;;;;5111764;28;20031;-71
2022/08/05 12:23:59;;;;;;;3.50;0.50;;;21.10;64.00;;;;;;5112181;28;20356;-72
2022/08/05 12:26:31;;;;;;;3.97;0.40;;;21.30;63.70;;;;;;5112166;28;20039;-71
2022/08/05 12:28:56;;;;;;;2.55;0.40;;;21.30;65.00;;;;;;5111972;28;20051;-71
2022/08/05 12:31:22;;;;;;;3.00;0.70;;;21.10;67.00;;;;;;5111612;28;20039;-71
2022/08/05 12:33:48;;;;;;;3.80;0.50;;;20.80;67.00;;;;;;5111918;28;20516;-72
2022/08/05 12:36:14;;;;;;;1.45;0.30;;;20.90;68.10;;;;;;5111724;28;20494;-71
2022/08/05 12:38:40;;;;;;;3.45;0.30;;;20.80;68.90;;;;;;5111935;28;20039;-71
2022/08/05 12:41:13;;;;;;;2.83;0.50;;;20.70;69.00;;;;;;5112482;28;20031;-71
2022/08/05 12:43:52;;;;;;;2.00;0.30;;;20.60;70.40;;;;;;5115851;28;20039;-71
2022/08/05 12:46:29;;;;;;;2.17;0.40;;;20.40;71.80;;;;;;5097271;28;20118;-71
2022/08/05 12:49:10;;;;;;;1.65;0.45;;;20.40;71.90;;;;;;5115423;28;20031;-71
2022/08/05 12:51:54;;;;;;;3.10;0.40;;;20.60;70.70;;;;;;5115187;28;20110;-71
2022/08/05 12:54:21;;;;;;;4.55;0.50;;;20.70;67.60;;;;;;5115568;28;20036;-71
2022/08/05 12:56:52;;;;;;;5.18;0.90;;;20.80;67.00;;;;;;5115456;28;20044;-71
2022/08/05 12:59:22;;;;;;;2.38;0.52;;;20.80;65.10;;;;;;5114960;28;20040;-71
2022/08/05 13:02:08;;;;;;;9.05;1.05;;;20.70;67.70;;;;;;5115281;28;20039;-71
2022/08/05 13:04:39;;;;;;;11.10;1.70;;;20.60;69.30;;;;;;5115256;28;20032;-71